createdAt,value
2018-07-23T00:00:55.972Z,97717.52
2018-07-23T00:03:24.182Z,97726.87
2018-07-23T00:05:52.221Z,97731.41
2018-07-23T00:08:20.242Z,97719.80
2018-07-23T00:10:48.343Z,97716.13
2018-07-23T00:13:16.385Z,97711.94
2018-07-23T00:15:44.377Z,97722.87
2018-07-23T00:18:12.470Z,97735.58
2018-07-23T00:20:40.576Z,97736.77
2018-07-23T00:23:08.840Z,97753.39
2018-07-23T00:25:36.903Z,97756.11
2018-07-23T00:28:04.920Z,97760.75
2018-07-23T00:30:32.995Z,97755.50
2018-07-23T00:33:01.099Z,97745.25
2018-07-23T00:35:29.155Z,97732.34
2018-07-23T00:37:57.154Z,97723.98
2018-07-23T00:40:25.163Z,97711.50
2018-07-23T00:42:53.269Z,97702.39
2018-07-23T00:45:21.351Z,97685.41
2018-07-23T00:47:49.450Z,97679.38
2018-07-23T00:50:17.517Z,97698.57
2018-07-23T00:52:45.438Z,97674.54
2018-07-23T00:55:13.525Z,97686.27
2018-07-23T00:57:41.624Z,97682.25
2018-07-23T01:00:09.677Z,97669.50
2018-07-23T01:02:37.691Z,97650.52
2018-07-23T01:05:05.791Z,97679.28
2018-07-23T01:07:33.889Z,97650.96
2018-07-23T01:10:01.931Z,97649.52
2018-07-23T01:12:34.029Z,97651.09
2018-07-23T01:15:02.431Z,97644.77
2018-07-23T01:17:30.465Z,97648.41
2018-07-23T01:19:59.397Z,97632.66
2018-07-23T01:22:28.118Z,97629.61
2018-07-23T01:24:57.135Z,97645.42
2018-07-23T01:27:25.320Z,97631.68
2018-07-23T01:29:53.356Z,97623.38
2018-07-23T01:32:21.492Z,97645.06
2018-07-23T01:34:49.911Z,97631.63
2018-07-23T01:37:18.459Z,97616.66
2018-07-23T01:39:46.632Z,97620.11
2018-07-23T01:42:14.688Z,97608.42
2018-07-23T01:44:42.834Z,97595.34
2018-07-23T01:47:11.166Z,97582.70
2018-07-23T01:49:39.337Z,97606.28
2018-07-23T01:52:07.353Z,97586.73
2018-07-23T01:54:35.768Z,97574.73
2018-07-23T01:57:03.910Z,97557.13
2018-07-23T01:59:32.144Z,97553.17
2018-07-23T02:02:00.112Z,97547.80
2018-07-23T02:04:28.123Z,97560.17
2018-07-23T02:06:56.080Z,97555.69
2018-07-23T02:09:24.103Z,97556.04
2018-07-23T02:11:52.149Z,97558.96
2018-07-23T02:14:20.277Z,97585.69
2018-07-23T02:16:48.424Z,97609.77
2018-07-23T02:19:16.533Z,97620.03
2018-07-23T02:21:44.553Z,97593.88
2018-07-23T02:24:12.543Z,97573.14
2018-07-23T02:26:40.610Z,97562.81
2018-07-23T02:29:08.835Z,97548.33
2018-07-23T02:31:36.965Z,97550.95
2018-07-23T02:34:04.875Z,97568.33
2018-07-23T02:36:32.925Z,97576.78
2018-07-23T02:39:00.973Z,97553.08
2018-07-23T02:41:29.048Z,97514.45
2018-07-23T02:43:57.042Z,97508.91
2018-07-23T02:46:25.212Z,97523.37
2018-07-23T02:48:53.179Z,97510.77
2018-07-23T02:51:21.340Z,97481.19
2018-07-23T02:53:49.453Z,97472.68
2018-07-23T02:56:17.375Z,97467.45
2018-07-23T02:58:45.465Z,97457.81
2018-07-23T03:01:13.475Z,97450.11
2018-07-23T03:03:41.557Z,97438.23
2018-07-23T03:06:09.613Z,97428.06
2018-07-23T03:08:37.620Z,97421.59
2018-07-23T03:11:05.676Z,97426.13
2018-07-23T03:13:33.918Z,97426.81
2018-07-23T03:16:01.927Z,97427.72
2018-07-23T03:18:29.951Z,97429.78
2018-07-23T03:20:58.008Z,97427.44
2018-07-23T03:23:26.066Z,97435.55
2018-07-23T03:25:54.211Z,97432.81
2018-07-23T03:28:22.270Z,97428.33
2018-07-23T03:30:50.234Z,97429.95
2018-07-23T03:33:18.342Z,97439.13
2018-07-23T03:35:46.374Z,97434.97
2018-07-23T03:38:14.776Z,97434.50
2018-07-23T03:40:42.798Z,97432.46
2018-07-23T03:43:11.236Z,97440.16
2018-07-23T03:45:39.222Z,97438.59
2018-07-23T03:48:07.331Z,97435.55
2018-07-23T03:50:35.614Z,97444.36
2018-07-23T03:53:03.751Z,97442.15
2018-07-23T03:55:31.734Z,97445.02
2018-07-23T03:57:59.835Z,97451.89
2018-07-23T04:00:27.791Z,97446.35
2018-07-23T04:02:55.818Z,97450.20
2018-07-23T04:05:23.853Z,97450.91
2018-07-23T04:07:51.930Z,97462.81
2018-07-23T04:10:19.886Z,97453.25
2018-07-23T04:12:47.832Z,97447.24
2018-07-23T04:15:15.883Z,97458.04
2018-07-23T04:17:50.832Z,97458.14
2018-07-23T04:20:18.904Z,97456.22
2018-07-23T04:22:46.949Z,97463.47
2018-07-23T04:25:15.020Z,97459.78
2018-07-23T04:27:43.007Z,97473.44
2018-07-23T04:30:11.112Z,97464.25
2018-07-23T04:32:39.232Z,97467.39
2018-07-23T04:35:07.325Z,97464.05
2018-07-23T04:37:35.383Z,97465.44
2018-07-23T04:40:03.617Z,97468.10
2018-07-23T04:42:32.151Z,97474.25
2018-07-23T04:45:00.198Z,97486.20
2018-07-23T04:47:28.263Z,97467.80
2018-07-23T04:49:56.227Z,97474.78
2018-07-23T04:52:24.330Z,97475.03
2018-07-23T04:54:52.415Z,97483.47
2018-07-23T04:57:20.547Z,97478.17
2018-07-23T04:59:48.569Z,97479.78
2018-07-23T05:02:16.612Z,97481.51
2018-07-23T05:04:44.640Z,97492.91
2018-07-23T05:07:12.639Z,97490.94
2018-07-23T05:09:40.591Z,97490.70
2018-07-23T05:12:08.569Z,97488.00
2018-07-23T05:14:36.560Z,97487.70
2018-07-23T05:17:04.672Z,97483.52
2018-07-23T05:19:32.720Z,97480.11
2018-07-23T05:22:00.791Z,97477.50
2018-07-23T05:24:28.866Z,97479.95
2018-07-23T05:26:56.973Z,97485.33
2018-07-23T05:29:25.812Z,97482.89
2018-07-23T05:31:53.917Z,97476.77
2018-07-23T05:34:21.995Z,97473.58
2018-07-23T05:36:50.248Z,97475.47
2018-07-23T05:39:18.459Z,97471.88
2018-07-23T05:41:46.487Z,97484.36
2018-07-23T05:44:14.571Z,97474.80
2018-07-23T05:46:42.739Z,97483.34
2018-07-23T05:49:10.777Z,97482.41
2018-07-23T05:51:38.759Z,97481.65
2018-07-23T05:54:07.312Z,97478.42
2018-07-23T05:56:35.388Z,97490.23
2018-07-23T05:59:03.568Z,97492.48
2018-07-23T06:01:31.662Z,97492.16
2018-07-23T06:04:00.187Z,97494.28
2018-07-23T06:06:28.297Z,97496.88
2018-07-23T06:08:56.366Z,97491.48
2018-07-23T06:11:24.491Z,97495.27
2018-07-23T06:13:52.623Z,97487.52
2018-07-23T06:16:20.970Z,97493.59
2018-07-23T06:18:49.098Z,97480.66
2018-07-23T06:21:17.245Z,97481.43
2018-07-23T06:23:45.288Z,97481.95
2018-07-23T06:26:13.344Z,97481.34
2018-07-23T06:28:41.439Z,97478.65
2018-07-23T06:31:09.579Z,97488.25
2018-07-23T06:33:37.851Z,97482.12
2018-07-23T06:36:05.925Z,97493.42
2018-07-23T06:38:34.145Z,97496.84
2018-07-23T06:41:02.231Z,97490.13
2018-07-23T06:43:30.284Z,97502.02
2018-07-23T06:45:58.512Z,97500.62
2018-07-23T06:48:26.744Z,97512.01
2018-07-23T06:50:55.076Z,97530.85
2018-07-23T06:53:23.116Z,97528.25
2018-07-23T06:55:51.271Z,97510.85
2018-07-23T06:58:19.402Z,97526.13
2018-07-23T07:00:47.539Z,97523.91
2018-07-23T07:03:15.673Z,97526.78
2018-07-23T07:05:43.742Z,97528.12
2018-07-23T07:08:11.902Z,97526.29
2018-07-23T07:10:39.974Z,97519.47
2018-07-23T07:13:08.044Z,97526.30
2018-07-23T07:15:36.165Z,97525.23
2018-07-23T07:18:04.205Z,97528.58
2018-07-23T07:20:32.771Z,97525.97
2018-07-23T07:23:01.115Z,97518.22
2018-07-23T07:25:29.186Z,97517.80
2018-07-23T07:27:57.420Z,97511.42
2018-07-23T07:30:25.523Z,97508.27
2018-07-23T07:32:53.623Z,97506.63
2018-07-23T07:35:21.741Z,97506.24
2018-07-23T07:37:49.843Z,97508.17
2018-07-23T07:40:17.854Z,97501.44
2018-07-23T07:42:46.007Z,97496.45
2018-07-23T07:45:13.996Z,97493.64
2018-07-23T07:47:42.136Z,97491.67
2018-07-23T07:50:10.229Z,97492.23
2018-07-23T07:52:38.290Z,97486.39
2018-07-23T07:55:06.474Z,97476.17
2018-07-23T07:57:34.557Z,97470.84
2018-07-23T08:00:02.660Z,97473.27
2018-07-23T08:02:30.635Z,97482.69
2018-07-23T08:04:58.595Z,97485.43
2018-07-23T08:07:26.680Z,97497.04
2018-07-23T08:09:54.837Z,97502.06
2018-07-23T08:12:23.041Z,97496.32
2018-07-23T08:14:51.039Z,97484.60
2018-07-23T08:17:19.044Z,97488.67
2018-07-23T08:19:47.524Z,97491.97
2018-07-23T08:22:15.580Z,97491.91
2018-07-23T08:24:43.864Z,97496.11
2018-07-23T08:27:12.072Z,97502.69
2018-07-23T08:29:40.246Z,97508.91
2018-07-23T08:32:08.310Z,97506.52
2018-07-23T08:34:36.373Z,97516.47
2018-07-23T08:37:04.631Z,97510.81
2018-07-23T08:39:32.653Z,97505.87
2018-07-23T08:42:00.858Z,97495.13
2018-07-23T08:44:28.852Z,97492.95
2018-07-23T08:46:57.058Z,97484.48
2018-07-23T08:49:25.299Z,97476.28
2018-07-23T08:51:53.683Z,97465.85
2018-07-23T08:54:21.822Z,97459.16
2018-07-23T08:56:50.142Z,97451.79
2018-07-23T08:59:19.526Z,97451.00
2018-07-23T09:01:47.568Z,97446.55
2018-07-23T09:04:15.648Z,97440.91
2018-07-23T09:06:43.921Z,97433.55
2018-07-23T09:09:11.911Z,97430.52
2018-07-23T09:11:40.126Z,97428.44
2018-07-23T09:14:08.152Z,97430.90
2018-07-23T09:16:36.255Z,97423.43
2018-07-23T09:19:04.946Z,97425.89
2018-07-23T09:21:33.062Z,97417.41
2018-07-23T09:24:01.195Z,97418.09
2018-07-23T09:26:29.268Z,97406.02
2018-07-23T09:28:57.470Z,97403.49
2018-07-23T09:31:25.683Z,97407.34
2018-07-23T09:33:53.711Z,97405.50
2018-07-23T09:36:21.811Z,97405.39
2018-07-23T09:38:49.958Z,97408.58
2018-07-23T09:41:18.225Z,97408.56
2018-07-23T09:43:46.293Z,97404.27
2018-07-23T09:46:14.463Z,97407.52
2018-07-23T09:48:42.441Z,97411.75
2018-07-23T09:51:10.505Z,97405.92
2018-07-23T09:53:38.505Z,97403.17
2018-07-23T09:56:06.860Z,97405.02
2018-07-23T09:58:35.289Z,97391.80
2018-07-23T10:01:08.727Z,97398.08
2018-07-23T10:03:37.034Z,97394.86
2018-07-23T10:06:05.182Z,97399.89
2018-07-23T10:08:34.423Z,97381.88
2018-07-23T10:11:02.560Z,97379.03
2018-07-23T10:13:30.622Z,97381.77
2018-07-23T10:15:58.846Z,97382.12
2018-07-23T10:18:26.888Z,97373.10
2018-07-23T10:20:55.201Z,97363.18
2018-07-23T10:23:23.357Z,97367.84
2018-07-23T10:25:51.394Z,97372.92
2018-07-23T10:28:19.432Z,97364.16
2018-07-23T10:30:47.535Z,97351.80
2018-07-23T10:33:15.491Z,97347.27
2018-07-23T10:35:43.544Z,97352.31
2018-07-23T10:38:11.688Z,97347.09
2018-07-23T10:40:39.868Z,97328.05
2018-07-23T10:43:19.863Z,97326.48
2018-07-23T10:45:47.981Z,97325.50
2018-07-23T10:48:15.902Z,97321.11
2018-07-23T10:50:43.909Z,97318.98
2018-07-23T10:53:12.013Z,97320.22
2018-07-23T10:55:40.092Z,97311.31
2018-07-23T10:58:08.161Z,97308.34
2018-07-23T11:00:36.257Z,97311.78
2018-07-23T11:03:04.258Z,97295.16
2018-07-23T11:05:32.601Z,97298.52
2018-07-23T11:08:00.615Z,97299.48
2018-07-23T11:10:28.557Z,97291.36
2018-07-23T11:12:56.582Z,97286.40
2018-07-23T11:15:25.657Z,97285.47
2018-07-23T11:17:54.253Z,97292.61
2018-07-23T11:20:22.238Z,97281.00
2018-07-23T11:22:50.297Z,97281.35
2018-07-23T11:25:39.178Z,97282.75
2018-07-23T11:27:46.751Z,97278.16
2018-07-23T11:30:14.942Z,97267.27
2018-07-23T11:32:43.062Z,97267.52
2018-07-23T11:35:11.117Z,97266.40
2018-07-23T11:37:39.248Z,97270.74
2018-07-23T11:40:07.343Z,97272.36
2018-07-23T11:42:35.859Z,97271.91
2018-07-23T11:45:04.707Z,97292.09
2018-07-23T11:47:32.656Z,97287.61
2018-07-23T11:58:32.185Z,97288.39
2018-07-23T12:01:00.531Z,97290.14
2018-07-23T12:03:28.486Z,97291.17
2018-07-23T12:05:56.385Z,97296.17
2018-07-23T12:08:24.401Z,97284.44
2018-07-23T12:10:52.646Z,97301.84
2018-07-23T12:13:20.649Z,97288.45
2018-07-23T12:15:48.697Z,97295.84
2018-07-23T12:18:16.816Z,97292.52
2018-07-23T12:20:44.830Z,97304.84
2018-07-23T12:23:12.849Z,97335.75
2018-07-23T12:25:40.907Z,97313.38
2018-07-23T12:28:09.083Z,97312.90
2018-07-23T12:30:37.231Z,97299.24
2018-07-23T12:33:05.412Z,97286.09
2018-07-23T12:35:33.582Z,97274.72
2018-07-23T12:38:01.595Z,97265.54
2018-07-23T12:40:29.630Z,97249.59
2018-07-23T12:42:57.716Z,97261.33
2018-07-23T12:45:25.752Z,97257.43
2018-07-23T12:47:53.880Z,97250.61
2018-07-23T12:50:21.843Z,97259.80
2018-07-23T12:52:50.072Z,97259.55
2018-07-23T12:55:18.175Z,97253.83
2018-07-23T12:57:46.275Z,97249.23
2018-07-23T13:00:14.286Z,97252.48
2018-07-23T13:02:42.322Z,97261.95
2018-07-23T13:05:10.117Z,97256.45
2018-07-23T13:07:38.147Z,97272.95
2018-07-23T13:10:06.173Z,97258.61
2018-07-23T13:12:34.245Z,97258.66
2018-07-23T13:15:02.337Z,97251.27
2018-07-23T13:17:30.287Z,97260.14
2018-07-23T13:19:58.947Z,97254.00
2018-07-23T13:22:26.955Z,97242.91
2018-07-23T13:24:55.374Z,97240.59
2018-07-23T13:27:23.331Z,97241.42
2018-07-23T13:29:51.426Z,97234.78
2018-07-23T13:32:19.481Z,97240.00
2018-07-23T13:34:47.492Z,97247.78
2018-07-23T13:37:15.625Z,97240.08
2018-07-23T13:39:43.636Z,97237.66
2018-07-23T13:42:11.775Z,97248.56
2018-07-23T13:44:39.987Z,97238.58
2018-07-23T13:47:07.976Z,97252.00
2018-07-23T13:49:36.027Z,97243.64
2018-07-23T13:52:05.953Z,97222.96
2018-07-23T13:54:33.967Z,97204.58
2018-07-23T13:57:03.091Z,97205.45
2018-07-23T13:59:31.181Z,97211.97
2018-07-23T14:01:59.194Z,97210.24
2018-07-23T14:04:27.313Z,97209.42
2018-07-23T14:06:55.460Z,97201.39
2018-07-23T14:09:23.728Z,97196.81
2018-07-23T14:11:51.822Z,97195.36
2018-07-23T14:14:20.070Z,97198.31
2018-07-23T14:16:48.092Z,97204.23
2018-07-23T14:19:16.116Z,97194.61
2018-07-23T14:21:44.316Z,97192.98
2018-07-23T14:24:12.399Z,97204.83
2018-07-23T14:26:40.428Z,97214.62
2018-07-23T14:29:08.578Z,97214.73
2018-07-23T14:31:36.694Z,97219.50
2018-07-23T14:34:04.892Z,97219.36
2018-07-23T14:36:33.004Z,97218.72
2018-07-23T14:39:01.260Z,97210.37
2018-07-23T14:41:29.267Z,97209.30
2018-07-23T14:43:57.860Z,97201.86
2018-07-23T14:46:25.961Z,97207.11
2018-07-23T14:48:53.957Z,97200.70
2018-07-23T14:51:21.997Z,97208.30
2018-07-23T14:53:50.317Z,97221.46
2018-07-23T14:56:18.483Z,97213.52
2018-07-23T14:58:46.587Z,97212.14
2018-07-23T15:01:14.740Z,97214.74
2018-07-23T15:03:42.923Z,97224.69
2018-07-23T15:06:11.197Z,97218.53
2018-07-23T15:08:39.466Z,97215.00
2018-07-23T15:11:07.543Z,97210.90
2018-07-23T15:13:35.643Z,97208.28
2018-07-23T15:16:03.804Z,97208.55
2018-07-23T15:18:31.892Z,97218.28
2018-07-23T15:20:59.973Z,97227.62
2018-07-23T15:23:29.142Z,97236.36
2018-07-23T15:25:57.315Z,97239.65
2018-07-23T15:28:25.435Z,97236.33
2018-07-23T15:30:53.414Z,97232.06
2018-07-23T15:33:21.663Z,97240.46
2018-07-23T15:35:49.788Z,97246.28
2018-07-23T15:38:18.319Z,97235.64
2018-07-23T15:40:46.526Z,97248.48
2018-07-23T15:43:14.574Z,97238.49
2018-07-23T15:45:42.980Z,97234.27
2018-07-23T15:48:10.931Z,97239.91
2018-07-23T15:50:38.927Z,97233.67
2018-07-23T15:53:07.139Z,97235.05
2018-07-23T15:55:35.355Z,97237.36
2018-07-23T15:58:03.434Z,97232.63
2018-07-23T16:00:31.530Z,97235.90
2018-07-23T16:02:59.973Z,97232.98
2018-07-23T16:05:28.208Z,97237.30
2018-07-23T16:07:56.289Z,97246.58
2018-07-23T16:10:24.518Z,97250.26
2018-07-23T16:12:52.626Z,97258.30
2018-07-23T16:15:20.660Z,97254.88
2018-07-23T16:17:48.644Z,97254.88
2018-07-23T16:20:17.897Z,97253.94
2018-07-23T16:22:46.031Z,97251.13
2018-07-23T16:25:14.107Z,97258.84
2018-07-23T16:27:42.406Z,97262.16
2018-07-23T16:30:10.754Z,97265.99
2018-07-23T16:32:38.976Z,97268.65
2018-07-23T16:35:09.261Z,97263.17
2018-07-23T16:37:37.530Z,97267.00
2018-07-23T16:40:06.305Z,97271.31
2018-07-23T16:42:34.581Z,97271.83
2018-07-23T16:45:02.805Z,97280.22
2018-07-23T16:47:30.816Z,97278.63
2018-07-23T16:49:59.190Z,97288.44
2018-07-23T16:52:27.245Z,97283.41
2018-07-23T16:54:56.426Z,97290.88
2018-07-23T16:57:24.457Z,97281.34
2018-07-23T16:59:52.516Z,97297.52
2018-07-23T17:02:20.637Z,97300.89
2018-07-23T17:04:48.764Z,97290.11
2018-07-23T17:07:16.872Z,97293.99
2018-07-23T17:09:44.922Z,97290.84
2018-07-23T17:12:13.054Z,97300.22
2018-07-23T17:14:41.154Z,97297.56
2018-07-23T17:17:09.321Z,97282.13
2018-07-23T17:19:37.563Z,97287.91
2018-07-23T17:22:05.671Z,97301.58
2018-07-23T17:24:35.246Z,97301.48
2018-07-23T17:27:03.628Z,97294.90
2018-07-23T17:29:31.766Z,97304.73
2018-07-23T17:32:00.056Z,97313.41
2018-07-23T17:34:28.464Z,97316.06
2018-07-23T17:36:56.437Z,97322.67
2018-07-23T17:39:24.615Z,97331.63
2018-07-23T17:41:53.167Z,97336.56
2018-07-23T17:44:21.490Z,97336.13
2018-07-23T17:46:49.426Z,97343.89
2018-07-23T17:49:17.589Z,97339.44
2018-07-23T17:51:45.525Z,97344.94
2018-07-23T17:54:13.553Z,97334.98
2018-07-23T17:56:41.638Z,97343.77
2018-07-23T17:59:09.815Z,97344.94
2018-07-23T18:01:38.129Z,97346.45
2018-07-23T18:04:06.348Z,97347.98
2018-07-23T18:06:34.416Z,97342.41
2018-07-23T18:09:02.589Z,97340.75
2018-07-23T18:11:30.744Z,97336.51
2018-07-23T18:13:58.760Z,97337.42
2018-07-23T18:16:26.791Z,97338.05
2018-07-23T18:18:54.827Z,97335.33
2018-07-23T18:21:23.915Z,97331.66
2018-07-23T18:23:52.073Z,97339.72
2018-07-23T18:26:21.218Z,97339.91
2018-07-23T18:28:49.291Z,97348.95
2018-07-23T18:31:17.418Z,97355.00
2018-07-23T18:33:45.658Z,97356.87
2018-07-23T18:36:13.959Z,97362.93
2018-07-23T18:38:42.091Z,97360.12
2018-07-23T18:41:10.299Z,97354.23
2018-07-23T18:43:38.443Z,97355.77
2018-07-23T18:46:07.854Z,97349.84
2018-07-23T18:49:45.737Z,97358.73
2018-07-23T18:52:14.443Z,97356.17
2018-07-23T18:54:44.038Z,97350.76
2018-07-23T18:57:12.553Z,97348.34
2018-07-23T18:59:40.599Z,97347.47
2018-07-23T19:02:10.030Z,97351.34
2018-07-23T19:04:38.146Z,97351.80
2018-07-23T19:07:06.954Z,97350.71
2018-07-23T19:09:35.055Z,97344.77
2018-07-23T19:12:03.361Z,97346.38
2018-07-23T19:14:31.589Z,97337.33
2018-07-23T19:17:01.212Z,97330.27
2018-07-23T19:19:29.611Z,97319.50
2018-07-23T19:21:58.612Z,97311.27
2018-07-23T19:24:26.836Z,97307.59
2018-07-23T19:26:54.854Z,97299.23
2018-07-23T19:29:22.985Z,97291.28
2018-07-23T19:31:51.116Z,97279.19
2018-07-23T19:34:19.199Z,97272.48
2018-07-23T19:36:47.384Z,97265.45
2018-07-23T19:39:17.590Z,97266.49
2018-07-23T19:41:45.782Z,97266.49
2018-07-23T19:44:13.988Z,97258.50
2018-07-23T19:46:42.767Z,97257.45
2018-07-23T19:49:10.787Z,97258.63
2018-07-23T19:51:38.906Z,97263.11
2018-07-23T19:54:07.837Z,97257.70
2018-07-23T19:56:35.857Z,97253.12
2018-07-23T19:59:04.036Z,97256.28
2018-07-23T20:01:32.303Z,97253.41
2018-07-23T20:04:00.557Z,97246.28
2018-07-23T20:06:29.122Z,97238.54
2018-07-23T20:08:58.298Z,97231.67
2018-07-23T20:11:27.179Z,97230.50
2018-07-23T20:13:55.315Z,97237.62
2018-07-23T20:16:23.351Z,97242.50
2018-07-23T20:18:51.511Z,97247.92
2018-07-23T20:21:19.483Z,97250.37
2018-07-23T20:23:47.538Z,97247.16
2018-07-23T20:26:15.660Z,97260.83
2018-07-23T20:28:43.684Z,97257.16
2018-07-23T20:31:11.673Z,97261.61
2018-07-23T20:33:39.685Z,97267.70
2018-07-23T20:36:07.825Z,97271.16
2018-07-23T20:38:36.386Z,97285.41
2018-07-23T20:41:04.424Z,97283.70
2018-07-23T20:43:32.874Z,97286.52
2018-07-23T20:46:01.169Z,97292.27
2018-07-23T20:48:29.245Z,97301.11
2018-07-23T20:50:57.440Z,97303.69
2018-07-23T20:53:25.637Z,97304.22
2018-07-23T20:55:53.789Z,97294.86
2018-07-23T20:58:22.102Z,97294.67
2018-07-23T21:00:50.212Z,97297.44
2018-07-23T21:03:18.421Z,97296.48
2018-07-23T21:05:46.422Z,97300.98
2018-07-23T21:08:14.357Z,97300.73
2018-07-23T21:10:42.416Z,97301.90
2018-07-23T21:13:10.653Z,97298.80
2018-07-23T21:15:38.730Z,97304.82
2018-07-23T21:18:07.294Z,97305.50
2018-07-23T21:20:35.310Z,97307.20
2018-07-23T21:23:03.304Z,97301.45
2018-07-23T21:25:31.392Z,97305.11
2018-07-23T21:27:59.324Z,97307.22
2018-07-23T21:30:27.726Z,97302.72
2018-07-23T21:32:55.817Z,97299.34
2018-07-23T21:35:23.828Z,97297.50
2018-07-23T21:37:51.829Z,97294.52
2018-07-23T21:40:19.823Z,97294.42
2018-07-23T21:42:47.819Z,97292.20
2018-07-23T21:45:15.893Z,97294.28
2018-07-23T21:47:43.866Z,97291.52
2018-07-23T21:50:11.781Z,97294.52
2018-07-23T21:52:39.865Z,97294.38
2018-07-23T21:55:08.061Z,97295.80
2018-07-23T21:57:36.015Z,97289.91
2018-07-23T22:00:06.806Z,97294.66
2018-07-23T22:02:34.806Z,97293.09
2018-07-23T22:05:02.843Z,97288.89
2018-07-23T22:07:30.862Z,97288.61
2018-07-23T22:09:58.986Z,97289.63
2018-07-23T22:12:26.947Z,97287.87
2018-07-23T22:14:54.907Z,97283.59
2018-07-23T22:17:23.147Z,97277.56
2018-07-23T22:19:51.319Z,97287.98
2018-07-23T22:22:19.319Z,97290.37
2018-07-23T22:24:47.327Z,97286.97
2018-07-23T22:27:15.514Z,97280.33
2018-07-23T22:29:43.507Z,97283.38
2018-07-23T22:32:11.662Z,97281.48
2018-07-23T22:34:39.649Z,97275.50
2018-07-23T22:37:07.686Z,97276.47
2018-07-23T22:39:35.722Z,97277.94
2018-07-23T22:42:03.909Z,97275.04
2018-07-23T22:44:31.846Z,97268.73
2018-07-23T22:46:59.789Z,97265.27
2018-07-23T22:49:27.862Z,97270.62
2018-07-23T22:51:55.943Z,97265.35
2018-07-23T22:54:24.023Z,97262.36
2018-07-23T22:56:51.947Z,97260.20
2018-07-23T22:59:20.009Z,97260.39
2018-07-23T23:01:47.961Z,97258.64
2018-07-23T23:04:15.862Z,97259.52
2018-07-23T23:06:43.869Z,97256.39
2018-07-23T23:09:11.974Z,97254.88
2018-07-23T23:11:39.938Z,97258.33
2018-07-23T23:14:08.047Z,97255.89
2018-07-23T23:16:36.192Z,97255.06
2018-07-23T23:19:04.375Z,97240.14
2018-07-23T23:21:32.453Z,97244.98
2018-07-23T23:24:00.391Z,97247.97
2018-07-23T23:26:28.391Z,97245.30
2018-07-23T23:28:56.505Z,97237.43
2018-07-23T23:31:24.492Z,97241.62
2018-07-23T23:33:52.663Z,97236.38
2018-07-23T23:36:20.705Z,97234.21
2018-07-23T23:38:48.669Z,97229.78
2018-07-23T23:41:16.734Z,97226.47
2018-07-23T23:43:44.732Z,97230.23
2018-07-23T23:46:12.751Z,97224.67
2018-07-23T23:48:40.754Z,97223.92
2018-07-23T23:51:08.919Z,97228.25
2018-07-23T23:53:36.945Z,97219.45
2018-07-23T23:56:05.140Z,97219.23
2018-07-23T23:58:33.233Z,97215.88
